Time,TemperatureF,DewpointF,PressureIn,WindDirection,WindDirectionDegrees,WindSpeedMPH,WindSpeedGustMPH,Humidity,HourlyPrecipIn,Conditions,Clouds,dailyrainin,SoftwareType,DateUTC
2013-02-03 00:00:00,29.2,23.8,29.99,ESE,113,0.0,0.2,80,0.00,,,0.00,WUHU216HW,2013-02-03 05:00:00,
2013-02-03 00:01:00,29.2,23.8,29.99,ESE,113,0.0,0.0,80,0.00,,,0.00,WUHU216HW,2013-02-03 05:01:00,
2013-02-03 00:03:00,29.0,23.9,29.99,ESE,113,0.0,0.0,81,0.00,,,0.00,WUHU216HW,2013-02-03 05:03:00,
2013-02-03 00:08:00,28.6,23.2,29.98,ESE,113,0.0,0.0,80,0.00,,,0.00,WUHU216HW,2013-02-03 05:08:00,
2013-02-03 00:13:00,28.4,23.3,29.98,ESE,113,0.0,0.0,81,0.00,,,0.00,WUHU216HW,2013-02-03 05:13:00,
2013-02-03 00:18:00,28.3,23.4,29.97,ESE,113,0.0,0.0,82,0.00,,,0.00,WUHU216HW,2013-02-03 05:18:00,
2013-02-03 00:23:00,28.1,23.0,29.97,ESE,113,0.0,0.0,81,0.00,,,0.00,WUHU216HW,2013-02-03 05:23:00,
2013-02-03 00:28:00,27.9,22.8,29.97,ESE,113,0.0,0.0,81,0.00,,,0.00,WUHU216HW,2013-02-03 05:28:00,
2013-02-03 00:33:00,27.7,22.6,29.97,ESE,113,0.0,0.0,81,0.00,,,0.00,WUHU216HW,2013-02-03 05:33:00,
2013-02-03 00:38:00,27.5,22.4,29.97,ESE,113,0.0,0.0,81,0.00,,,0.00,WUHU216HW,2013-02-03 05:38:00,
2013-02-03 00:43:00,27.2,22.1,29.97,ESE,113,0.0,0.0,81,0.00,,,0.00,WUHU216HW,2013-02-03 05:43:00,
2013-02-03 00:48:00,27.0,21.9,29.97,ESE,113,0.0,0.0,81,0.00,,,0.00,WUHU216HW,2013-02-03 05:48:00,
2013-02-03 00:53:00,27.0,22.1,29.97,NNE,23,0.0,0.0,82,0.00,,,0.00,WUHU216HW,2013-02-03 05:53:00,
2013-02-03 00:58:00,27.0,22.1,29.97,NNE,23,0.0,0.0,82,0.00,,,0.00,WUHU216HW,2013-02-03 05:58:00,
2013-02-03 01:03:00,26.8,22.0,29.97,NNE,23,0.0,0.0,82,0.00,,,0.00,WUHU216HW,2013-02-03 06:03:00,
2013-02-03 01:08:00,26.6,21.8,29.97,NNE,23,0.0,0.0,82,0.00,,,0.00,WUHU216HW,2013-02-03 06:08:00,
2013-02-03 01:13:00,26.6,21.8,29.97,NNE,23,0.0,0.0,82,0.00,,,0.00,WUHU216HW,2013-02-03 06:13:00,
2013-02-03 01:18:00,26.8,22.3,29.97,NNE,23,0.0,0.0,83,0.00,,,0.00,WUHU216HW,2013-02-03 06:18:00,
2013-02-03 01:24:00,26.8,22.3,29.96,NNE,23,0.0,0.0,83,0.00,,,0.00,WUHU216HW,2013-02-03 06:24:00,
2013-02-03 01:29:00,26.8,22.3,29.96,NNE,23,0.0,0.0,83,0.00,,,0.00,WUHU216HW,2013-02-03 06:29:00,
2013-02-03 01:34:00,27.0,22.5,29.96,NNE,23,0.0,0.0,83,0.00,,,0.00,WUHU216HW,2013-02-03 06:34:00,
2013-02-03 01:39:00,27.0,22.5,29.96,NNE,23,0.0,0.0,83,0.00,,,0.00,WUHU216HW,2013-02-03 06:39:00,
2013-02-03 01:44:00,27.0,22.5,29.96,NNE,23,0.0,0.0,83,0.00,,,0.00,WUHU216HW,2013-02-03 06:44:00,
2013-02-03 01:49:00,27.0,22.5,29.95,NNE,23,0.0,0.0,83,0.00,,,0.00,WUHU216HW,2013-02-03 06:49:00,
2013-02-03 01:54:00,27.0,22.5,29.95,NNE,23,0.0,0.0,83,0.00,,,0.00,WUHU216HW,2013-02-03 06:54:00,
2013-02-03 01:59:00,27.0,22.8,29.95,NNE,23,0.0,0.0,84,0.00,,,0.00,WUHU216HW,2013-02-03 06:59:00,
2013-02-03 02:04:00,27.4,22.9,29.95,NNE,23,0.0,0.0,83,0.00,,,0.00,WUHU216HW,2013-02-03 07:04:00,
2013-02-03 02:09:00,27.4,22.9,29.95,NNE,23,0.0,0.0,83,0.00,,,0.00,WUHU216HW,2013-02-03 07:09:00,
2013-02-03 02:14:00,27.4,22.9,29.94,NNE,23,0.0,0.0,83,0.00,,,0.00,WUHU216HW,2013-02-03 07:14:00,
2013-02-03 02:19:00,27.4,22.9,29.94,NNE,23,0.0,0.0,83,0.00,,,0.00,WUHU216HW,2013-02-03 07:19:00,
2013-02-03 02:25:00,27.5,23.1,29.94,NNE,23,0.0,0.0,83,0.00,,,0.00,WUHU216HW,2013-02-03 07:25:00,
2013-02-03 02:30:00,27.4,22.9,29.94,NNE,23,0.0,0.0,83,0.00,,,0.00,WUHU216HW,2013-02-03 07:30:00,
2013-02-03 02:35:00,27.4,22.9,29.94,NNE,23,0.0,0.0,83,0.00,,,0.00,WUHU216HW,2013-02-03 07:35:00,
2013-02-03 02:40:00,27.2,22.7,29.94,NNE,23,0.0,0.0,83,0.00,,,0.00,WUHU216HW,2013-02-03 07:40:00,
2013-02-03 02:45:00,27.0,22.5,29.94,NNE,23,0.0,0.0,83,0.00,,,0.00,WUHU216HW,2013-02-03 07:45:00,
2013-02-03 02:50:00,27.0,22.5,29.94,NNE,23,0.0,0.0,83,0.00,,,0.00,WUHU216HW,2013-02-03 07:50:00,
2013-02-03 02:55:00,26.6,22.2,29.94,NNE,23,0.0,0.0,83,0.00,,,0.00,WUHU216HW,2013-02-03 07:55:00,
2013-02-03 03:00:00,26.5,22.0,29.93,NNE,23,0.0,0.0,83,0.00,,,0.00,WUHU216HW,2013-02-03 08:00:00,
2013-02-03 03:05:00,26.3,21.8,29.93,NNE,23,0.0,0.0,83,0.00,,,0.00,WUHU216HW,2013-02-03 08:05:00,
2013-02-03 03:10:00,26.1,21.6,29.92,NNE,23,0.0,0.0,83,0.00,,,0.00,WUHU216HW,2013-02-03 08:10:00,
2013-02-03 03:15:00,26.1,21.6,29.92,NNE,23,0.0,0.0,83,0.00,,,0.00,WUHU216HW,2013-02-03 08:15:00,
2013-02-03 03:20:00,26.1,21.6,29.92,NNE,23,0.0,0.0,83,0.00,,,0.00,WUHU216HW,2013-02-03 08:20:00,
2013-02-03 03:25:00,25.9,21.4,29.92,NNE,23,0.0,0.0,83,0.00,,,0.00,WUHU216HW,2013-02-03 08:25:00,
2013-02-03 03:30:00,25.9,21.7,29.91,NNE,23,0.0,0.0,84,0.00,,,0.00,WUHU216HW,2013-02-03 08:30:00,
2013-02-03 03:35:00,25.9,21.4,29.91,NNE,23,0.0,0.0,83,0.00,,,0.00,WUHU216HW,2013-02-03 08:35:00,
2013-02-03 03:40:00,25.7,21.5,29.91,NNE,23,0.0,0.0,84,0.00,,,0.00,WUHU216HW,2013-02-03 08:40:00,
2013-02-03 03:46:00,25.6,21.4,29.91,NNE,23,0.0,0.0,84,0.00,,,0.00,WUHU216HW,2013-02-03 08:46:00,
2013-02-03 03:51:00,25.4,21.3,29.91,NNE,23,0.0,0.0,84,0.00,,,0.00,WUHU216HW,2013-02-03 08:51:00,
2013-02-03 03:56:00,25.6,21.4,29.90,NNE,23,0.0,0.0,84,0.00,,,0.00,WUHU216HW,2013-02-03 08:56:00,
2013-02-03 04:01:00,25.6,21.4,29.90,NNE,23,0.0,0.0,84,0.00,,,0.00,WUHU216HW,2013-02-03 09:01:00,
2013-02-03 04:06:00,25.6,21.4,29.90,NNE,23,0.0,0.0,84,0.00,,,0.00,WUHU216HW,2013-02-03 09:06:00,
2013-02-03 04:11:00,25.4,21.3,29.90,NNE,23,0.0,0.0,84,0.00,,,0.00,WUHU216HW,2013-02-03 09:11:00,
2013-02-03 04:16:00,25.4,21.3,29.90,NNE,23,0.0,0.0,84,0.00,,,0.00,WUHU216HW,2013-02-03 09:16:00,
2013-02-03 04:21:00,25.2,21.1,29.90,NNE,23,0.0,0.0,84,0.00,,,0.00,WUHU216HW,2013-02-03 09:21:00,
2013-02-03 04:26:00,25.0,20.9,29.90,NNE,23,0.0,0.0,84,0.00,,,0.00,WUHU216HW,2013-02-03 09:26:00,
2013-02-03 04:31:00,25.0,20.9,29.89,NNE,23,0.0,0.0,84,0.00,,,0.00,WUHU216HW,2013-02-03 09:31:00,
2013-02-03 04:36:00,25.0,20.9,29.90,NNE,23,0.0,0.0,84,0.00,,,0.00,WUHU216HW,2013-02-03 09:36:00,
2013-02-03 04:41:00,25.0,20.9,29.89,NNE,23,0.0,0.0,84,0.00,,,0.00,WUHU216HW,2013-02-03 09:41:00,
2013-02-03 04:46:00,24.8,20.7,29.89,NNE,23,0.0,0.0,84,0.00,,,0.00,WUHU216HW,2013-02-03 09:46:00,
2013-02-03 04:52:00,24.8,20.7,29.89,NNE,23,0.0,0.0,84,0.00,,,0.00,WUHU216HW,2013-02-03 09:52:00,
2013-02-03 04:57:00,24.8,20.7,29.89,NNE,23,0.0,0.0,84,0.00,,,0.00,WUHU216HW,2013-02-03 09:57:00,
2013-02-03 05:02:00,24.5,20.3,29.89,NNE,23,0.0,0.0,84,0.00,,,0.00,WUHU216HW,2013-02-03 10:02:00,
2013-02-03 05:07:00,24.5,20.3,29.89,NNE,23,0.0,0.0,84,0.00,,,0.00,WUHU216HW,2013-02-03 10:07:00,
2013-02-03 05:12:00,24.5,20.3,29.89,NNE,23,0.0,0.0,84,0.00,,,0.00,WUHU216HW,2013-02-03 10:12:00,
2013-02-03 05:33:00,24.7,20.8,29.90,NNE,23,0.0,0.0,85,0.00,,,0.00,WUHU216HW,2013-02-03 10:33:00,
2013-02-03 05:38:00,24.7,20.8,29.90,NNE,23,0.0,0.0,85,0.00,,,0.00,WUHU216HW,2013-02-03 10:38:00,
2013-02-03 05:43:00,24.8,21.0,29.90,NNE,23,0.0,0.0,85,0.00,,,0.00,WUHU216HW,2013-02-03 10:43:00,
2013-02-03 05:48:00,25.2,21.3,29.90,NNE,23,0.0,0.0,85,0.00,,,0.00,WUHU216HW,2013-02-03 10:48:00,
2013-02-03 05:53:00,25.7,22.4,29.90,WNW,293,0.0,0.0,87,0.00,,,0.00,WUHU216HW,2013-02-03 10:53:00,
2013-02-03 05:58:00,26.1,22.4,29.90,WNW,293,0.0,0.0,86,0.00,,,0.00,WUHU216HW,2013-02-03 10:58:00,
2013-02-03 06:03:00,26.1,22.4,29.90,WNW,293,0.0,0.0,86,0.00,,,0.00,WUHU216HW,2013-02-03 11:03:00,
2013-02-03 06:08:00,26.3,22.6,29.90,SW,225,0.2,0.4,86,0.00,,,0.00,WUHU216HW,2013-02-03 11:08:00,
2013-02-03 06:13:00,26.5,22.8,29.90,SW,225,0.0,0.4,86,0.00,,,0.00,WUHU216HW,2013-02-03 11:13:00,
2013-02-03 06:18:00,26.5,22.8,29.90,WSW,248,0.0,0.0,86,0.00,,,0.00,WUHU216HW,2013-02-03 11:18:00,
2013-02-03 06:23:00,26.5,22.8,29.90,SW,225,0.0,0.4,86,0.00,,,0.00,WUHU216HW,2013-02-03 11:23:00,
2013-02-03 06:29:00,26.6,23.2,29.90,SW,225,0.0,0.4,87,0.00,,,0.00,WUHU216HW,2013-02-03 11:29:00,
2013-02-03 06:34:00,27.0,23.6,29.91,SW,225,0.0,0.4,87,0.00,,,0.00,WUHU216HW,2013-02-03 11:34:00,
2013-02-03 06:39:00,27.0,23.6,29.91,SSW,203,0.0,0.4,87,0.00,,,0.00,WUHU216HW,2013-02-03 11:39:00,
2013-02-03 06:44:00,27.0,23.6,29.91,WSW,248,0.0,0.7,87,0.00,,,0.00,WUHU216HW,2013-02-03 11:44:00,
2013-02-03 06:49:00,27.0,23.6,29.91,SW,225,0.0,0.7,87,0.00,,,0.00,WUHU216HW,2013-02-03 11:49:00,
2013-02-03 06:54:00,27.0,23.6,29.91,SW,225,0.0,0.2,87,0.00,,,0.00,WUHU216HW,2013-02-03 11:54:00,
2013-02-03 06:59:00,26.8,23.4,29.91,SW,225,0.0,0.2,87,0.00,,,0.00,WUHU216HW,2013-02-03 11:59:00,
2013-02-03 07:04:00,26.6,23.2,29.91,SW,225,0.0,0.0,87,0.00,,,0.00,WUHU216HW,2013-02-03 12:04:00,
2013-02-03 07:09:00,26.6,23.0,29.91,SW,225,0.0,0.0,86,0.00,,,0.00,WUHU216HW,2013-02-03 12:09:00,
2013-02-03 07:14:00,26.5,23.0,29.91,SW,225,0.0,0.2,87,0.00,,,0.00,WUHU216HW,2013-02-03 12:14:00,
2013-02-03 07:19:00,26.5,22.8,29.92,SW,225,0.0,0.2,86,0.00,,,0.00,WUHU216HW,2013-02-03 12:19:00,
2013-02-03 07:25:00,26.5,22.8,29.92,SW,225,0.0,0.0,86,0.00,,,0.00,WUHU216HW,2013-02-03 12:25:00,
2013-02-03 07:30:00,26.5,22.8,29.92,SW,225,0.0,0.0,86,0.00,,,0.00,WUHU216HW,2013-02-03 12:30:00,
2013-02-03 07:35:00,26.8,23.4,29.92,WSW,248,0.0,0.2,87,0.00,,,0.00,WUHU216HW,2013-02-03 12:35:00,
2013-02-03 07:40:00,27.0,23.6,29.92,SW,225,0.9,1.3,87,0.00,,,0.00,WUHU216HW,2013-02-03 12:40:00,
2013-02-03 07:45:00,27.5,24.5,29.92,SW,225,0.0,1.3,88,0.00,,,0.00,WUHU216HW,2013-02-03 12:45:00,
2013-02-03 07:50:00,27.7,24.3,29.92,SW,225,0.0,0.4,87,0.00,,,0.00,WUHU216HW,2013-02-03 12:50:00,
2013-02-03 07:55:00,27.9,24.9,29.92,SSW,203,0.0,0.7,88,0.00,,,0.00,WUHU216HW,2013-02-03 12:55:00,
2013-02-03 08:00:00,28.1,24.7,29.92,SW,225,0.2,0.7,87,0.00,,,0.00,WUHU216HW,2013-02-03 13:00:00,
2013-02-03 08:05:00,28.3,24.8,29.92,WSW,248,0.0,0.2,87,0.00,,,0.00,WUHU216HW,2013-02-03 13:05:00,
2013-02-03 08:10:00,28.4,25.0,29.93,West,270,0.0,0.4,87,0.00,,,0.00,WUHU216HW,2013-02-03 13:10:00,
2013-02-03 08:15:00,28.4,25.4,29.93,WSW,248,0.9,1.8,88,0.00,,,0.00,WUHU216HW,2013-02-03 13:15:00,
2013-02-03 08:20:00,28.6,25.2,29.93,SW,225,0.9,1.8,87,0.00,,,0.00,WUHU216HW,2013-02-03 13:20:00,
2013-02-03 08:25:00,28.8,25.4,29.92,SW,225,0.9,0.9,87,0.00,,,0.00,WUHU216HW,2013-02-03 13:25:00,
2013-02-03 08:30:00,29.0,25.6,29.93,SW,225,0.7,0.9,87,0.00,,,0.00,WUHU216HW,2013-02-03 13:30:00,
2013-02-03 08:35:00,29.2,25.7,29.93,SW,225,0.7,0.9,87,0.00,,,0.00,WUHU216HW,2013-02-03 13:35:00,
2013-02-03 08:40:00,29.2,25.5,29.93,SW,225,0.0,0.9,86,0.00,,,0.00,WUHU216HW,2013-02-03 13:40:00,
2013-02-03 08:45:00,29.3,25.7,29.93,SW,225,0.0,1.1,86,0.00,,,0.00,WUHU216HW,2013-02-03 13:45:00,
2013-02-03 08:50:00,29.5,25.8,29.93,SW,225,0.0,1.1,86,0.00,,,0.00,WUHU216HW,2013-02-03 13:50:00,
2013-02-03 08:55:00,29.9,26.5,29.93,SW,225,0.0,0.4,87,0.00,,,0.00,WUHU216HW,2013-02-03 13:55:00,
2013-02-03 09:00:00,30.2,26.6,29.93,WSW,248,0.7,1.1,86,0.00,,,0.00,WUHU216HW,2013-02-03 14:00:00,
2013-02-03 09:05:00,30.2,26.6,29.92,WSW,248,2.2,2.2,86,0.00,,,0.00,WUHU216HW,2013-02-03 14:05:00,
2013-02-03 09:10:00,30.2,26.6,29.93,WSW,248,0.0,2.2,86,0.00,,,0.00,WUHU216HW,2013-02-03 14:10:00,
2013-02-03 09:15:00,30.6,26.9,29.92,NNW,338,1.1,1.1,86,0.00,,,0.00,WUHU216HW,2013-02-03 14:15:00,
2013-02-03 09:20:00,30.8,27.1,29.92,SSW,203,0.0,1.1,86,0.00,,,0.00,WUHU216HW,2013-02-03 14:20:00,
2013-02-03 09:25:00,31.3,27.4,29.92,South,180,0.0,1.1,85,0.00,,,0.00,WUHU216HW,2013-02-03 14:25:00,
2013-02-03 09:31:00,31.9,27.9,29.92,SW,225,1.1,1.1,85,0.00,,,0.00,WUHU216HW,2013-02-03 14:31:00,
2013-02-03 09:36:00,31.9,27.6,29.92,South,180,0.0,1.1,84,0.00,,,0.00,WUHU216HW,2013-02-03 14:36:00,
2013-02-03 09:41:00,32.0,27.8,29.92,SSW,203,0.0,0.4,84,0.00,,,0.00,WUHU216HW,2013-02-03 14:41:00,
2013-02-03 09:46:00,32.2,27.6,29.92,SSW,203,0.0,0.7,83,0.00,,,0.00,WUHU216HW,2013-02-03 14:46:00,
2013-02-03 09:51:00,32.2,27.6,29.92,SSE,158,0.0,1.1,83,0.00,,,0.00,WUHU216HW,2013-02-03 14:51:00,
2013-02-03 09:56:00,32.2,27.4,29.92,SSE,158,0.4,1.6,82,0.00,,,0.00,WUHU216HW,2013-02-03 14:56:00,
2013-02-03 10:01:00,32.4,27.5,29.91,SW,225,0.4,1.6,82,0.00,,,0.00,WUHU216HW,2013-02-03 15:01:00,
2013-02-03 10:04:00,32.4,27.3,29.91,SSE,158,0.0,0.0,81,0.00,,,0.00,WUHU216HW,2013-02-03 15:04:00,
2013-02-03 10:06:00,32.4,27.3,29.91,SSE,158,0.0,1.1,81,0.00,,,0.00,WUHU216HW,2013-02-03 15:06:00,
2013-02-03 10:11:00,32.4,27.3,29.91,SSE,158,0.0,0.9,81,0.00,,,0.00,WUHU216HW,2013-02-03 15:11:00,
2013-02-03 10:34:00,33.3,27.8,29.91,SW,225,1.8,1.8,80,0.00,,,0.00,WUHU216HW,2013-02-03 15:34:00,
2013-02-03 10:39:00,33.5,27.9,29.90,SW,225,1.3,1.8,80,0.00,,,0.00,WUHU216HW,2013-02-03 15:39:00,
2013-02-03 10:44:00,33.7,28.1,29.90,SSW,203,0.4,1.3,80,0.00,,,0.00,WUHU216HW,2013-02-03 15:44:00,
2013-02-03 10:49:00,33.8,28.3,29.90,South,180,0.0,3.1,80,0.00,,,0.00,WUHU216HW,2013-02-03 15:49:00,
2013-02-03 10:54:00,34.2,28.6,29.90,SE,135,0.4,3.1,80,0.00,,,0.00,WUHU216HW,2013-02-03 15:54:00,
2013-02-03 10:59:00,34.7,29.2,29.90,ESE,113,0.0,0.9,80,0.00,,,0.00,WUHU216HW,2013-02-03 15:59:00,
2013-02-03 11:04:00,34.9,29.0,29.89,SW,225,1.1,1.1,79,0.00,,,0.00,WUHU216HW,2013-02-03 16:04:00,
2013-02-03 11:09:00,35.1,28.9,29.89,SSW,203,0.0,1.3,78,0.00,,,0.00,WUHU216HW,2013-02-03 16:09:00,
2013-02-03 11:14:00,35.5,28.6,29.89,South,180,1.8,1.8,76,0.00,,,0.00,WUHU216HW,2013-02-03 16:14:00,
2013-02-03 11:20:00,35.3,28.5,29.89,SSW,203,0.0,1.8,76,0.00,,,0.00,WUHU216HW,2013-02-03 16:20:00,
2013-02-03 11:25:00,35.3,27.7,29.89,SSW,203,2.9,2.9,74,0.01,,,0.01,WUHU216HW,2013-02-03 16:25:00,
2013-02-03 11:30:00,34.9,27.1,29.89,SW,225,1.1,2.9,73,0.01,,,0.01,WUHU216HW,2013-02-03 16:30:00,
2013-02-03 11:35:00,34.9,27.4,29.88,NW,315,0.0,2.0,74,0.01,,,0.01,WUHU216HW,2013-02-03 16:35:00,
2013-02-03 11:40:00,35.3,28.1,29.88,NNW,338,0.0,1.1,75,0.01,,,0.01,WUHU216HW,2013-02-03 16:40:00,
2013-02-03 11:45:00,35.6,28.1,29.88,North,0,0.4,1.1,74,0.01,,,0.01,WUHU216HW,2013-02-03 16:45:00,
2013-02-03 11:50:00,35.6,28.4,29.88,SW,225,0.2,0.9,75,0.01,,,0.01,WUHU216HW,2013-02-03 16:50:00,
2013-02-03 11:55:00,36.2,29.0,29.88,NNW,338,1.1,1.1,75,0.01,,,0.01,WUHU216HW,2013-02-03 16:55:00,
2013-02-03 12:00:00,36.4,28.8,29.87,North,0,2.9,2.9,74,0.01,,,0.01,WUHU216HW,2013-02-03 17:00:00,
2013-02-03 12:05:00,35.8,28.3,29.87,East,90,0.9,3.1,74,0.01,,,0.01,WUHU216HW,2013-02-03 17:05:00,
2013-02-03 12:10:00,35.8,28.6,29.87,NW,315,0.0,3.1,75,0.01,,,0.01,WUHU216HW,2013-02-03 17:10:00,
2013-02-03 12:15:00,35.8,28.6,29.87,SSE,158,0.4,1.8,75,0.01,,,0.01,WUHU216HW,2013-02-03 17:15:00,
2013-02-03 12:20:00,35.8,28.6,29.86,NNE,23,2.2,2.2,75,0.00,,,0.01,WUHU216HW,2013-02-03 17:20:00,
2013-02-03 12:25:00,35.5,28.3,29.86,North,0,0.4,2.5,75,0.00,,,0.01,WUHU216HW,2013-02-03 17:25:00,
2013-02-03 12:31:00,35.3,28.1,29.86,NW,315,0.9,2.5,75,0.00,,,0.01,WUHU216HW,2013-02-03 17:31:00,
2013-02-03 12:36:00,35.5,28.3,29.86,NNW,338,2.7,2.7,75,0.00,,,0.01,WUHU216HW,2013-02-03 17:36:00,
2013-02-03 12:41:00,35.8,29.0,29.85,NNW,338,1.8,2.7,76,0.00,,,0.01,WUHU216HW,2013-02-03 17:41:00,
2013-02-03 12:46:00,36.4,29.2,29.85,South,180,0.7,2.2,75,0.00,,,0.01,WUHU216HW,2013-02-03 17:46:00,
2013-02-03 12:51:00,36.4,29.2,29.85,NNE,23,0.2,1.8,75,0.00,,,0.01,WUHU216HW,2013-02-03 17:51:00,
2013-02-03 12:56:00,36.5,29.7,29.85,NE,45,1.1,3.6,76,0.00,,,0.01,WUHU216HW,2013-02-03 17:56:00,
2013-02-03 13:01:00,36.4,29.2,29.85,ESE,113,0.7,3.6,75,0.00,,,0.01,WUHU216HW,2013-02-03 18:01:00,
2013-02-03 13:06:00,35.8,28.3,29.84,NNE,23,0.9,4.7,74,0.00,,,0.01,WUHU216HW,2013-02-03 18:06:00,
2013-02-03 13:11:00,35.6,28.4,29.84,NNE,23,0.9,4.7,75,0.00,,,0.01,WUHU216HW,2013-02-03 18:11:00,
2013-02-03 13:16:00,35.1,27.9,29.84,NNW,338,3.4,3.4,75,0.00,,,0.01,WUHU216HW,2013-02-03 18:16:00,
2013-02-03 13:21:00,34.9,27.7,29.84,NW,315,2.5,6.3,75,0.00,,,0.01,WUHU216HW,2013-02-03 18:21:00,
2013-02-03 13:26:00,34.9,28.1,29.84,NNW,338,2.9,6.3,76,0.00,,,0.01,WUHU216HW,2013-02-03 18:26:00,
2013-02-03 13:31:00,35.1,28.3,29.83,NNW,338,2.2,4.9,76,0.00,,,0.01,WUHU216HW,2013-02-03 18:31:00,
2013-02-03 13:37:00,35.3,28.5,29.83,North,0,0.7,5.6,76,0.00,,,0.01,WUHU216HW,2013-02-03 18:37:00,
2013-02-03 13:42:00,35.6,29.1,29.83,NE,45,3.8,5.6,77,0.00,,,0.01,WUHU216HW,2013-02-03 18:42:00,
2013-02-03 13:47:00,36.0,29.4,29.83,NNW,338,2.5,3.8,77,0.00,,,0.01,WUHU216HW,2013-02-03 18:47:00,
2013-02-03 13:52:00,36.0,29.4,29.83,North,0,2.9,2.9,77,0.00,,,0.01,WUHU216HW,2013-02-03 18:52:00,
2013-02-03 13:57:00,36.0,29.4,29.83,NNW,338,0.7,3.4,77,0.00,,,0.01,WUHU216HW,2013-02-03 18:57:00,
2013-02-03 14:02:00,36.2,29.6,29.82,NNW,338,2.9,3.4,77,0.00,,,0.01,WUHU216HW,2013-02-03 19:02:00,
2013-02-03 14:07:00,36.0,29.2,29.82,North,0,2.0,3.8,76,0.00,,,0.01,WUHU216HW,2013-02-03 19:07:00,
2013-02-03 14:12:00,35.6,28.8,29.82,NW,315,2.9,4.3,76,0.00,,,0.01,WUHU216HW,2013-02-03 19:12:00,
2013-02-03 14:17:00,35.8,29.0,29.82,SSW,203,2.5,4.3,76,0.00,,,0.01,WUHU216HW,2013-02-03 19:17:00,
2013-02-03 14:22:00,35.3,28.5,29.82,NE,45,0.0,3.4,76,0.00,,,0.01,WUHU216HW,2013-02-03 19:22:00,
2013-02-03 14:27:00,35.5,28.6,29.82,WNW,293,1.8,3.4,76,0.00,,,0.01,WUHU216HW,2013-02-03 19:27:00,
2013-02-03 14:32:00,35.5,28.6,29.82,NNW,338,1.6,3.1,76,0.00,,,0.01,WUHU216HW,2013-02-03 19:32:00,
2013-02-03 14:37:00,35.5,28.9,29.82,WNW,293,0.7,4.9,77,0.00,,,0.01,WUHU216HW,2013-02-03 19:37:00,
2013-02-03 14:42:00,35.5,28.9,29.82,South,180,0.2,4.9,77,0.00,,,0.01,WUHU216HW,2013-02-03 19:42:00,
2013-02-03 14:47:00,35.8,29.6,29.82,North,0,1.3,1.8,78,0.00,,,0.01,WUHU216HW,2013-02-03 19:47:00,
2013-02-03 14:52:00,35.6,29.1,29.82,NE,45,1.8,2.9,77,0.00,,,0.01,WUHU216HW,2013-02-03 19:52:00,
2013-02-03 14:58:00,35.6,29.1,29.83,North,0,0.7,4.0,77,0.00,,,0.01,WUHU216HW,2013-02-03 19:58:00,
2013-02-03 15:03:00,35.5,28.9,29.83,NNW,338,1.3,4.0,77,0.00,,,0.01,WUHU216HW,2013-02-03 20:03:00,
2013-02-03 15:08:00,35.5,28.9,29.82,North,0,4.0,4.0,77,0.00,,,0.01,WUHU216HW,2013-02-03 20:08:00,
2013-02-03 15:13:00,35.5,28.9,29.82,SSW,203,0.9,4.0,77,0.00,,,0.01,WUHU216HW,2013-02-03 20:13:00,
2013-02-03 15:18:00,35.6,29.1,29.82,North,0,1.8,1.8,77,0.00,,,0.01,WUHU216HW,2013-02-03 20:18:00,
2013-02-03 15:23:00,35.6,29.1,29.82,NW,315,1.1,1.8,77,0.00,,,0.01,WUHU216HW,2013-02-03 20:23:00,
2013-02-03 15:28:00,35.6,28.8,29.82,NNW,338,0.9,2.5,76,0.00,,,0.01,WUHU216HW,2013-02-03 20:28:00,
2013-02-03 15:33:00,35.3,28.5,29.82,NNW,338,1.6,2.5,76,0.00,,,0.01,WUHU216HW,2013-02-03 20:33:00,
2013-02-03 15:38:00,35.1,28.3,29.82,ENE,68,0.4,4.3,76,0.00,,,0.01,WUHU216HW,2013-02-03 20:38:00,
2013-02-03 15:43:00,35.3,28.5,29.82,NNW,338,1.1,4.3,76,0.00,,,0.01,WUHU216HW,2013-02-03 20:43:00,
2013-02-03 15:48:00,35.1,28.3,29.83,North,0,1.8,1.8,76,0.00,,,0.01,WUHU216HW,2013-02-03 20:48:00,
2013-02-03 15:53:00,35.1,28.3,29.83,NNW,338,2.2,2.7,76,0.00,,,0.01,WUHU216HW,2013-02-03 20:53:00,
2013-02-03 15:58:00,35.3,28.5,29.83,North,0,0.0,3.4,76,0.00,,,0.01,WUHU216HW,2013-02-03 20:58:00,
2013-02-03 16:03:00,35.3,28.5,29.83,NNW,338,1.8,1.8,76,0.00,,,0.01,WUHU216HW,2013-02-03 21:03:00,
2013-02-03 16:08:00,35.3,28.5,29.83,NNW,338,0.4,1.8,76,0.00,,,0.01,WUHU216HW,2013-02-03 21:08:00,
2013-02-03 16:13:00,35.3,28.5,29.82,NNE,23,0.2,2.0,76,0.00,,,0.01,WUHU216HW,2013-02-03 21:13:00,
2013-02-03 16:18:00,35.1,28.3,29.83,NNW,338,1.6,2.0,76,0.00,,,0.01,WUHU216HW,2013-02-03 21:18:00,
2013-02-03 16:23:00,35.1,28.3,29.82,NW,315,0.0,2.0,76,0.00,,,0.01,WUHU216HW,2013-02-03 21:23:00,
2013-02-03 16:28:00,35.3,28.5,29.82,NE,45,0.2,2.0,76,0.00,,,0.01,WUHU216HW,2013-02-03 21:28:00,
2013-02-03 16:33:00,35.3,28.5,29.81,SSW,203,0.7,2.0,76,0.00,,,0.01,WUHU216HW,2013-02-03 21:33:00,
2013-02-03 16:38:00,35.5,28.6,29.81,NNW,338,0.4,1.3,76,0.00,,,0.01,WUHU216HW,2013-02-03 21:38:00,
2013-02-03 16:43:00,35.3,28.5,29.82,NE,45,0.0,1.8,76,0.00,,,0.01,WUHU216HW,2013-02-03 21:43:00,
2013-02-03 16:48:00,35.1,28.3,29.82,North,0,0.4,1.8,76,0.00,,,0.01,WUHU216HW,2013-02-03 21:48:00,
2013-02-03 16:53:00,35.1,28.3,29.81,North,0,0.2,1.8,76,0.00,,,0.01,WUHU216HW,2013-02-03 21:53:00,
2013-02-03 16:59:00,35.1,28.3,29.82,North,0,1.1,1.3,76,0.00,,,0.01,WUHU216HW,2013-02-03 21:59:00,
2013-02-03 17:04:00,34.9,28.1,29.82,NNW,338,1.6,3.4,76,0.00,,,0.01,WUHU216HW,2013-02-03 22:04:00,
2013-02-03 17:09:00,34.9,28.1,29.82,NNW,338,0.0,3.4,76,0.00,,,0.01,WUHU216HW,2013-02-03 22:09:00,
2013-02-03 17:14:00,34.9,28.1,29.82,NNW,338,2.5,2.7,76,0.00,,,0.01,WUHU216HW,2013-02-03 22:14:00,
2013-02-03 17:19:00,34.7,27.9,29.82,NNW,338,1.1,2.7,76,0.00,,,0.01,WUHU216HW,2013-02-03 22:19:00,
2013-02-03 17:24:00,34.4,27.6,29.82,NW,315,0.7,2.5,76,0.00,,,0.01,WUHU216HW,2013-02-03 22:24:00,
2013-02-03 17:29:00,34.2,27.4,29.82,NNW,338,1.6,2.5,76,0.00,,,0.01,WUHU216HW,2013-02-03 22:29:00,
2013-02-03 17:34:00,34.0,27.2,29.82,WNW,293,1.6,1.6,76,0.00,,,0.01,WUHU216HW,2013-02-03 22:34:00,
2013-02-03 17:39:00,34.0,27.2,29.82,NNW,338,2.0,2.0,76,0.00,,,0.01,WUHU216HW,2013-02-03 22:39:00,
2013-02-03 17:44:00,34.0,27.5,29.82,North,0,0.2,2.0,77,0.00,,,0.01,WUHU216HW,2013-02-03 22:44:00,
2013-02-03 17:50:00,33.8,27.3,29.82,NNW,338,0.2,0.9,77,0.00,,,0.01,WUHU216HW,2013-02-03 22:50:00,
2013-02-03 17:55:00,33.8,27.3,29.82,NW,315,0.4,0.7,77,0.00,,,0.01,WUHU216HW,2013-02-03 22:55:00,
2013-02-03 18:00:00,33.7,27.1,29.82,NNW,338,0.4,0.7,77,0.00,,,0.01,WUHU216HW,2013-02-03 23:00:00,
2013-02-03 18:05:00,33.5,27.0,29.83,NW,315,0.0,0.7,77,0.00,,,0.01,WUHU216HW,2013-02-03 23:05:00,
2013-02-03 18:10:00,33.1,26.6,29.82,NW,315,0.4,0.7,77,0.00,,,0.01,WUHU216HW,2013-02-03 23:10:00,
2013-02-03 18:15:00,32.8,26.3,29.82,NNW,338,0.0,0.4,77,0.00,,,0.01,WUHU216HW,2013-02-03 23:15:00,
2013-02-03 18:20:00,32.6,26.5,29.82,NNW,338,0.0,1.1,78,0.00,,,0.01,WUHU216HW,2013-02-03 23:20:00,
2013-02-03 18:25:00,32.4,26.3,29.82,NNW,338,0.0,1.1,78,0.00,,,0.01,WUHU216HW,2013-02-03 23:25:00,
2013-02-03 18:30:00,32.0,26.0,29.83,NNW,338,0.0,0.4,78,0.00,,,0.01,WUHU216HW,2013-02-03 23:30:00,
2013-02-03 18:35:00,31.7,25.7,29.83,NNW,338,0.2,0.2,78,0.00,,,0.01,WUHU216HW,2013-02-03 23:35:00,
2013-02-03 18:40:00,31.3,25.3,29.83,NNW,338,0.0,0.2,78,0.00,,,0.01,WUHU216HW,2013-02-03 23:40:00,
2013-02-03 18:45:00,31.3,25.3,29.83,NNW,338,0.0,0.0,78,0.00,,,0.01,WUHU216HW,2013-02-03 23:45:00,
2013-02-03 18:50:00,31.0,24.9,29.83,NNW,338,0.0,0.2,78,0.00,,,0.01,WUHU216HW,2013-02-03 23:50:00,
2013-02-03 18:55:00,30.6,24.6,29.83,NNW,338,0.0,0.2,78,0.00,,,0.01,WUHU216HW,2013-02-03 23:55:00,
2013-02-03 19:00:00,30.4,24.7,29.83,NNW,338,0.0,0.0,79,0.00,,,0.01,WUHU216HW,2013-02-04 00:00:00,
2013-02-03 19:05:00,30.2,24.5,29.84,NNW,338,0.0,0.0,79,0.00,,,0.01,WUHU216HW,2013-02-04 00:05:00,
2013-02-03 19:11:00,30.2,24.5,29.84,NNW,338,0.0,0.0,79,0.00,,,0.01,WUHU216HW,2013-02-04 00:11:00,
2013-02-03 19:16:00,30.2,24.5,29.84,NNW,338,0.0,0.0,79,0.00,,,0.01,WUHU216HW,2013-02-04 00:16:00,
2013-02-03 19:21:00,30.2,24.8,29.84,NNW,338,0.0,0.0,80,0.00,,,0.01,WUHU216HW,2013-02-04 00:21:00,
2013-02-03 19:26:00,30.4,25.0,29.84,NNW,338,0.0,0.0,80,0.00,,,0.01,WUHU216HW,2013-02-04 00:26:00,
2013-02-03 19:31:00,30.4,25.0,29.84,NNW,338,0.0,0.0,80,0.00,,,0.01,WUHU216HW,2013-02-04 00:31:00,
2013-02-03 19:36:00,30.6,25.5,29.84,NNW,338,0.0,0.0,81,0.00,,,0.01,WUHU216HW,2013-02-04 00:36:00,
2013-02-03 19:41:00,30.6,25.5,29.84,NNW,338,0.0,0.0,81,0.00,,,0.01,WUHU216HW,2013-02-04 00:41:00,
2013-02-03 19:46:00,30.6,25.5,29.84,NNW,338,0.0,0.0,81,0.00,,,0.01,WUHU216HW,2013-02-04 00:46:00,
2013-02-03 19:51:00,30.6,25.5,29.85,NNW,338,0.0,0.0,81,0.00,,,0.01,WUHU216HW,2013-02-04 00:51:00,
2013-02-03 19:56:00,30.6,25.5,29.85,NNW,338,0.0,0.0,81,0.00,,,0.01,WUHU216HW,2013-02-04 00:56:00,
2013-02-03 20:01:00,30.8,25.7,29.85,NNW,338,0.0,0.9,81,0.00,,,0.01,WUHU216HW,2013-02-04 01:01:00,
2013-02-03 20:06:00,31.0,25.8,29.85,NW,315,0.0,0.9,81,0.00,,,0.01,WUHU216HW,2013-02-04 01:06:00,
2013-02-03 20:11:00,31.1,26.3,29.85,NNW,338,0.2,0.4,82,0.00,,,0.01,WUHU216HW,2013-02-04 01:11:00,
2013-02-03 20:16:00,31.3,26.5,29.85,WNW,293,1.1,1.1,82,0.00,,,0.01,WUHU216HW,2013-02-04 01:16:00,
2013-02-03 20:21:00,31.5,26.6,29.85,NNW,338,0.0,1.1,82,0.00,,,0.01,WUHU216HW,2013-02-04 01:21:00,
2013-02-03 20:26:00,31.9,27.0,29.85,North,0,1.3,1.3,82,0.00,,,0.01,WUHU216HW,2013-02-04 01:26:00,
2013-02-03 20:31:00,32.0,26.9,29.86,NNE,23,1.8,1.8,81,0.00,,,0.01,WUHU216HW,2013-02-04 01:31:00,
2013-02-03 20:36:00,32.4,27.3,29.86,North,0,0.0,1.8,81,0.00,,,0.01,WUHU216HW,2013-02-04 01:36:00,
2013-02-03 20:41:00,32.6,27.5,29.86,NNW,338,0.7,1.1,81,0.00,,,0.01,WUHU216HW,2013-02-04 01:41:00,
2013-02-03 20:47:00,32.8,27.5,29.87,NW,315,1.1,1.6,81,0.00,,,0.01,WUHU216HW,2013-02-04 01:47:00,
2013-02-03 20:52:00,32.8,27.5,29.87,NNE,23,0.9,2.0,81,0.00,,,0.01,WUHU216HW,2013-02-04 01:52:00,
2013-02-03 20:57:00,32.9,27.7,29.87,NNE,23,0.9,2.0,81,0.00,,,0.01,WUHU216HW,2013-02-04 01:57:00,
2013-02-03 21:02:00,32.9,28.0,29.87,North,0,0.0,2.2,82,0.00,,,0.01,WUHU216HW,2013-02-04 02:02:00,
2013-02-03 21:07:00,33.1,28.2,29.87,NNW,338,0.4,3.4,82,0.00,,,0.01,WUHU216HW,2013-02-04 02:07:00,
2013-02-03 21:12:00,33.1,27.9,29.87,NW,315,1.1,3.4,81,0.00,,,0.01,WUHU216HW,2013-02-04 02:12:00,
2013-02-03 21:17:00,33.1,27.9,29.87,NNW,338,0.2,3.1,81,0.00,,,0.01,WUHU216HW,2013-02-04 02:17:00,
2013-02-03 21:22:00,33.1,27.9,29.87,NE,45,1.8,2.0,81,0.00,,,0.01,WUHU216HW,2013-02-04 02:22:00,
2013-02-03 21:27:00,33.1,27.9,29.88,NNW,338,0.4,1.8,81,0.00,,,0.01,WUHU216HW,2013-02-04 02:27:00,
2013-02-03 21:32:00,32.9,27.7,29.88,ESE,113,1.1,1.8,81,0.00,,,0.01,WUHU216HW,2013-02-04 02:32:00,
2013-02-03 21:37:00,33.1,27.9,29.88,NE,45,0.4,1.6,81,0.00,,,0.01,WUHU216HW,2013-02-04 02:37:00,
2013-02-03 21:42:00,33.5,27.9,29.88,NNE,23,1.1,1.8,80,0.00,,,0.01,WUHU216HW,2013-02-04 02:42:00,
2013-02-03 21:47:00,33.8,27.3,29.88,ENE,68,2.5,2.7,77,0.00,,,0.01,WUHU216HW,2013-02-04 02:47:00,
2013-02-03 21:52:00,34.0,27.2,29.88,ENE,68,2.7,2.7,76,0.00,,,0.01,WUHU216HW,2013-02-04 02:52:00,
2013-02-03 21:58:00,34.0,26.8,29.88,East,90,1.1,2.7,75,0.00,,,0.01,WUHU216HW,2013-02-04 02:58:00,
2013-02-03 22:03:00,34.0,26.5,29.89,ENE,68,1.8,2.9,74,0.00,,,0.01,WUHU216HW,2013-02-04 03:03:00,
2013-02-03 22:08:00,33.8,26.0,29.89,NE,45,1.1,3.4,73,0.00,,,0.01,WUHU216HW,2013-02-04 03:08:00,
2013-02-03 22:13:00,33.8,26.0,29.89,ENE,68,2.7,3.4,73,0.00,,,0.01,WUHU216HW,2013-02-04 03:13:00,
2013-02-03 22:18:00,33.8,25.7,29.90,ESE,113,1.8,4.3,72,0.00,,,0.01,WUHU216HW,2013-02-04 03:18:00,
2013-02-03 22:23:00,33.7,25.5,29.91,ENE,68,0.7,4.3,72,0.00,,,0.01,WUHU216HW,2013-02-04 03:23:00,
2013-02-03 22:28:00,33.5,25.0,29.91,NE,45,2.7,2.9,71,0.00,,,0.01,WUHU216HW,2013-02-04 03:28:00,
2013-02-03 22:33:00,33.5,25.0,29.91,ESE,113,1.3,2.9,71,0.00,,,0.01,WUHU216HW,2013-02-04 03:33:00,
2013-02-03 22:38:00,33.1,24.4,29.90,North,0,0.9,2.7,70,0.00,,,0.01,WUHU216HW,2013-02-04 03:38:00,
2013-02-03 22:43:00,33.1,24.4,29.91,NNW,338,1.1,2.7,70,0.00,,,0.01,WUHU216HW,2013-02-04 03:43:00,
2013-02-03 22:48:00,32.8,24.0,29.91,ENE,68,0.4,2.5,70,0.00,,,0.01,WUHU216HW,2013-02-04 03:48:00,
2013-02-03 22:53:00,32.8,24.0,29.91,ENE,68,0.4,1.6,70,0.00,,,0.01,WUHU216HW,2013-02-04 03:53:00,
2013-02-03 22:58:00,32.4,23.8,29.91,ESE,113,1.1,1.6,70,0.00,,,0.01,WUHU216HW,2013-02-04 03:58:00,
2013-02-03 23:03:00,32.4,23.8,29.92,NE,45,1.1,1.1,70,0.00,,,0.01,WUHU216HW,2013-02-04 04:03:00,
2013-02-03 23:08:00,32.4,23.8,29.92,NE,45,1.1,1.6,70,0.00,,,0.01,WUHU216HW,2013-02-04 04:08:00,
2013-02-03 23:13:00,32.6,23.1,29.92,ENE,68,2.9,2.9,68,0.00,,,0.01,WUHU216HW,2013-02-04 04:13:00,
2013-02-03 23:18:00,32.8,23.0,29.92,ENE,68,1.8,3.1,67,0.00,,,0.01,WUHU216HW,2013-02-04 04:18:00,
2013-02-03 23:23:00,32.8,23.0,29.92,ENE,68,1.6,4.7,67,0.00,,,0.01,WUHU216HW,2013-02-04 04:23:00,
2013-02-03 23:28:00,32.8,22.6,29.92,ENE,68,0.9,4.7,66,0.00,,,0.01,WUHU216HW,2013-02-04 04:28:00,
2013-02-03 23:33:00,32.8,22.6,29.93,East,90,1.3,2.9,66,0.00,,,0.01,WUHU216HW,2013-02-04 04:33:00,
2013-02-03 23:38:00,32.6,22.1,29.93,SW,225,0.4,1.8,65,0.00,,,0.01,WUHU216HW,2013-02-04 04:38:00,
2013-02-03 23:43:00,32.4,22.3,29.93,NW,315,0.2,2.5,66,0.00,,,0.01,WUHU216HW,2013-02-04 04:43:00,
2013-02-03 23:48:00,32.4,21.6,29.93,East,90,1.8,2.5,64,0.00,,,0.01,WUHU216HW,2013-02-04 04:48:00,
2013-02-03 23:53:00,32.0,21.2,29.93,NE,45,2.0,2.5,64,0.00,,,0.01,WUHU216HW,2013-02-04 04:53:00,
2013-02-03 23:58:00,32.0,21.2,29.93,North,0,4.0,4.0,64,0.00,,,0.01,WUHU216HW,2013-02-04 04:58:00,